createdAt,value
2018-09-04T00:00:45.715Z,34.10
2018-09-04T00:01:45.764Z,35.50
2018-09-04T00:02:45.718Z,35.40
2018-09-04T00:03:45.683Z,32.40
2018-09-04T00:04:45.688Z,32.20
2018-09-04T00:05:45.667Z,33.70
2018-09-04T00:06:45.654Z,34.40
2018-09-04T00:07:45.660Z,34.70
2018-09-04T00:08:45.658Z,34.80
2018-09-04T00:09:45.621Z,34.90
2018-09-04T00:10:45.606Z,31.70
2018-09-04T00:11:45.630Z,33.60
2018-09-04T00:12:45.582Z,33.00
2018-09-04T00:13:45.574Z,32.90
2018-09-04T00:14:45.577Z,33.50
2018-09-04T00:15:45.546Z,34.40
2018-09-04T00:16:45.532Z,32.60
2018-09-04T00:17:45.540Z,34.50
2018-09-04T00:18:45.528Z,34.90
2018-09-04T00:19:45.502Z,35.50
2018-09-04T00:20:45.489Z,34.20
2018-09-04T00:21:45.484Z,36.40
2018-09-04T00:22:45.467Z,34.70
2018-09-04T00:23:45.490Z,34.20
2018-09-04T00:24:45.456Z,32.70
2018-09-04T00:25:45.436Z,30.80
2018-09-04T00:26:45.422Z,33.80
2018-09-04T00:27:45.420Z,32.60
2018-09-04T00:28:45.425Z,34.60
2018-09-04T00:29:45.403Z,35.70
2018-09-04T00:30:45.381Z,39.50
2018-09-04T00:31:45.374Z,40.00
2018-09-04T00:32:45.375Z,39.50
2018-09-04T00:33:45.347Z,40.60
2018-09-04T00:34:45.375Z,39.30
2018-09-04T00:35:45.327Z,41.50
2018-09-04T00:36:45.329Z,41.70
2018-09-04T00:37:45.302Z,40.70
2018-09-04T00:38:45.290Z,41.10
2018-09-04T00:39:45.277Z,39.50
2018-09-04T00:40:45.287Z,39.10
2018-09-04T00:41:45.256Z,43.60
2018-09-04T00:42:45.265Z,42.10
2018-09-04T00:43:45.239Z,43.40
2018-09-04T00:44:45.225Z,41.20
2018-09-04T00:45:45.233Z,42.40
2018-09-04T00:46:45.216Z,43.40
2018-09-04T00:47:45.187Z,44.60
2018-09-04T00:48:45.211Z,45.40
2018-09-04T00:49:45.163Z,44.10
2018-09-04T00:50:45.177Z,46.20
2018-09-04T00:51:45.150Z,47.90
2018-09-04T00:52:45.136Z,46.30
2018-09-04T00:53:45.125Z,44.20
2018-09-04T00:54:45.144Z,44.60
2018-09-04T00:55:45.117Z,44.00
2018-09-04T00:56:45.090Z,43.90
2018-09-04T00:57:45.085Z,44.70
2018-09-04T00:58:45.064Z,43.60
2018-09-04T00:59:45.066Z,44.50
2018-09-04T01:00:45.054Z,45.30
2018-09-04T01:01:45.054Z,43.40
2018-09-04T01:02:45.020Z,42.20
2018-09-04T01:03:45.013Z,43.20
2018-09-04T01:04:45.016Z,43.50
2018-09-04T01:05:44.985Z,43.70
2018-09-04T01:06:45.012Z,44.40
2018-09-04T01:07:44.962Z,43.40
2018-09-04T01:08:44.974Z,44.60
2018-09-04T01:09:44.942Z,40.90
2018-09-04T01:10:44.937Z,41.10
2018-09-04T01:11:44.922Z,43.20
2018-09-04T01:12:44.917Z,38.80
2018-09-04T01:13:44.940Z,41.10
2018-09-04T01:14:44.895Z,41.00
2018-09-04T01:15:44.879Z,42.00
2018-09-04T01:16:44.893Z,42.80
2018-09-04T01:17:44.868Z,41.40
2018-09-04T01:18:44.858Z,41.10
2018-09-04T01:19:44.858Z,43.40
2018-09-04T01:20:44.822Z,44.30
2018-09-04T01:21:44.814Z,43.10
2018-09-04T01:22:44.798Z,41.80
2018-09-04T01:23:44.791Z,41.20
2018-09-04T01:24:44.795Z,41.40
2018-09-04T01:25:44.790Z,40.60
2018-09-04T01:26:44.759Z,40.80
2018-09-04T01:27:44.763Z,42.10
2018-09-04T01:28:44.737Z,39.10
2018-09-04T01:29:44.726Z,43.40
2018-09-04T01:30:44.709Z,44.10
2018-09-04T01:31:44.729Z,42.10
2018-09-04T01:32:44.687Z,42.30
2018-09-04T01:33:44.695Z,43.30
2018-09-04T01:34:44.705Z,42.50
2018-09-04T01:35:44.694Z,44.60
2018-09-04T01:36:44.646Z,45.30
2018-09-04T01:37:44.638Z,45.90
2018-09-04T01:38:44.623Z,42.80
2018-09-04T01:39:44.616Z,40.30
2018-09-04T01:40:44.623Z,42.30
2018-09-04T01:41:44.590Z,43.70
2018-09-04T01:42:44.582Z,44.40
2018-09-04T01:43:44.569Z,44.40
2018-09-04T01:44:44.559Z,44.20
2018-09-04T01:45:44.547Z,44.40
2018-09-04T01:46:44.572Z,43.20
2018-09-04T01:47:44.520Z,41.70
2018-09-04T01:48:44.512Z,42.40
2018-09-04T01:49:44.514Z,40.00
2018-09-04T01:50:44.494Z,40.70
2018-09-04T01:51:44.475Z,40.30
2018-09-04T01:52:44.480Z,42.60
2018-09-04T01:53:44.458Z,42.30
2018-09-04T01:54:44.448Z,44.20
2018-09-04T01:55:44.449Z,44.20
2018-09-04T01:56:44.423Z,42.40
2018-09-04T01:57:44.437Z,42.70
2018-09-04T01:58:44.402Z,42.00
2018-09-04T01:59:44.393Z,42.90
2018-09-04T02:01:57.569Z,40.10
2018-09-04T02:02:57.161Z,43.60
2018-09-04T02:03:57.063Z,43.90
2018-09-04T02:04:57.101Z,45.00
2018-09-04T02:05:57.026Z,43.80
2018-09-04T02:06:57.045Z,44.30
2018-09-04T02:07:57.001Z,46.70
2018-09-04T02:08:57.006Z,48.20
2018-09-04T02:09:56.996Z,47.60
2018-09-04T02:10:56.969Z,45.80
2018-09-04T02:11:56.973Z,46.90
2018-09-04T02:12:56.950Z,48.40
2018-09-04T02:13:56.973Z,47.80
2018-09-04T02:14:56.921Z,47.10
2018-09-04T02:15:56.913Z,50.10
2018-09-04T02:16:56.922Z,48.30
2018-09-04T02:17:56.991Z,45.80
2018-09-04T02:18:56.884Z,45.50
2018-09-04T02:19:56.883Z,45.20
2018-09-04T02:20:56.859Z,43.90
2018-09-04T02:21:56.844Z,45.80
2018-09-04T02:22:56.839Z,44.90
2018-09-04T02:23:56.818Z,45.40
2018-09-04T02:24:56.841Z,44.80
2018-09-04T02:25:56.798Z,44.10
2018-09-04T02:26:56.785Z,44.30
2018-09-04T02:27:56.772Z,43.50
2018-09-04T02:28:56.784Z,44.90
2018-09-04T02:29:56.749Z,44.90
2018-09-04T02:30:56.760Z,42.30
2018-09-04T02:31:56.726Z,42.70
2018-09-04T02:32:56.744Z,42.30
2018-09-04T02:33:56.745Z,46.40
2018-09-04T02:34:56.722Z,46.00
2018-09-04T02:35:56.687Z,44.50
2018-09-04T02:36:56.668Z,46.70
2018-09-04T02:37:56.658Z,46.30
2018-09-04T02:38:56.649Z,43.40
2018-09-04T02:39:56.650Z,46.00
2018-09-04T02:40:56.644Z,43.40
2018-09-04T02:41:56.611Z,45.90
2018-09-04T02:42:56.605Z,46.70
2018-09-04T02:43:56.619Z,48.90
2018-09-04T02:44:56.601Z,48.10
2018-09-04T02:45:56.572Z,47.10
2018-09-04T02:46:56.572Z,46.10
2018-09-04T02:47:56.547Z,47.50
2018-09-04T02:48:56.558Z,45.40
2018-09-04T02:49:56.523Z,45.30
2018-09-04T02:50:56.524Z,44.60
2018-09-04T02:51:56.518Z,44.90
2018-09-04T02:52:56.510Z,45.20
2018-09-04T02:53:56.508Z,44.30
2018-09-04T02:54:56.471Z,43.90
2018-09-04T02:55:56.461Z,42.70
2018-09-04T02:56:56.448Z,42.00
2018-09-04T02:57:56.435Z,41.80
2018-09-04T02:58:56.433Z,41.00
2018-09-04T02:59:56.440Z,43.00
2018-09-04T03:00:56.404Z,43.20
2018-09-04T03:01:56.392Z,41.70
2018-09-04T03:02:56.380Z,41.60
2018-09-04T03:03:56.380Z,42.40
2018-09-04T03:04:56.363Z,43.60
2018-09-04T03:05:56.363Z,42.10
2018-09-04T03:06:56.333Z,43.10
2018-09-04T03:07:56.323Z,43.10
2018-09-04T03:08:56.312Z,41.50
2018-09-04T03:09:56.300Z,36.90
2018-09-04T03:10:56.314Z,38.90
2018-09-04T03:11:56.281Z,41.00
2018-09-04T03:12:56.266Z,42.50
2018-09-04T03:13:56.319Z,41.40
2018-09-04T03:14:56.250Z,39.40
2018-09-04T03:15:56.279Z,39.70
2018-09-04T03:16:56.240Z,40.40
2018-09-04T03:17:56.209Z,40.40
2018-09-04T03:18:56.198Z,39.60
2018-09-04T03:19:56.187Z,41.10
2018-09-04T03:20:56.179Z,41.20
2018-09-04T03:21:56.192Z,43.50
2018-09-04T03:22:56.186Z,37.50
2018-09-04T03:23:56.146Z,42.50
2018-09-04T03:24:56.130Z,38.80
2018-09-04T03:25:56.123Z,40.80
2018-09-04T03:26:56.122Z,39.80
2018-09-04T03:27:56.119Z,38.20
2018-09-04T03:28:56.100Z,41.10
2018-09-04T03:29:56.100Z,42.70
2018-09-04T03:30:56.083Z,41.60
2018-09-04T03:31:56.057Z,38.90
2018-09-04T03:32:56.041Z,40.90
2018-09-04T03:33:56.026Z,40.40
2018-09-04T03:34:56.038Z,40.50
2018-09-04T03:35:56.065Z,42.90
2018-09-04T03:36:56.000Z,43.20
2018-09-04T03:37:56.007Z,40.30
2018-09-04T03:38:55.975Z,42.80
2018-09-04T03:39:55.983Z,40.30
2018-09-04T03:40:55.991Z,41.70
2018-09-04T03:41:55.943Z,40.80
2018-09-04T03:42:55.925Z,40.30
2018-09-04T03:43:55.928Z,44.50
2018-09-04T03:44:55.928Z,46.00
2018-09-04T03:45:55.888Z,46.50
2018-09-04T03:46:55.887Z,47.40
2018-09-04T03:47:55.880Z,41.30
2018-09-04T03:48:55.858Z,40.90
2018-09-04T03:49:55.842Z,41.00
2018-09-04T03:50:55.851Z,45.50
2018-09-04T03:51:55.831Z,40.70
2018-09-04T03:52:55.809Z,41.20
2018-09-04T03:53:55.829Z,41.40
2018-09-04T03:54:55.805Z,44.70
2018-09-04T03:55:55.776Z,46.10
2018-09-04T03:56:55.765Z,47.40
2018-09-04T03:57:55.754Z,45.00
2018-09-04T03:58:55.741Z,42.60
2018-09-04T03:59:55.790Z,42.50
2018-09-04T04:00:55.722Z,43.60
2018-09-04T04:01:55.712Z,45.90
2018-09-04T04:02:55.692Z,43.10
2018-09-04T04:03:55.696Z,42.50
2018-09-04T04:04:55.673Z,43.90
2018-09-04T04:05:55.710Z,48.80
2018-09-04T04:06:55.647Z,44.40
2018-09-04T04:07:55.639Z,42.60
2018-09-04T04:08:55.635Z,45.80
2018-09-04T04:09:55.611Z,48.20
2018-09-04T04:10:55.608Z,46.40
2018-09-04T04:11:55.682Z,47.10
2018-09-04T04:12:55.783Z,44.60
2018-09-04T04:15:07.784Z,39.60
2018-09-04T04:16:07.402Z,45.20
2018-09-04T04:17:07.285Z,44.90
2018-09-04T04:18:07.322Z,45.30
2018-09-04T04:19:07.347Z,47.00
2018-09-04T04:20:07.247Z,44.50
2018-09-04T04:21:07.291Z,46.40
2018-09-04T04:22:07.258Z,44.00
2018-09-04T04:23:07.213Z,44.60
2018-09-04T04:24:07.194Z,44.80
2018-09-04T04:25:07.256Z,43.50
2018-09-04T04:26:07.192Z,43.50
2018-09-04T04:27:07.172Z,45.00
2018-09-04T04:28:07.186Z,47.90
2018-09-04T04:29:07.182Z,47.00
2018-09-04T04:30:07.129Z,46.20
2018-09-04T04:31:07.123Z,47.30
2018-09-04T04:32:07.169Z,43.70
2018-09-04T04:33:07.227Z,45.10
2018-09-04T04:34:07.144Z,45.50
2018-09-04T04:35:07.080Z,41.40
2018-09-04T04:36:07.060Z,43.80
2018-09-04T04:37:07.067Z,45.20
2018-09-04T04:38:07.039Z,43.00
2018-09-04T04:39:07.034Z,42.60
2018-09-04T04:40:07.166Z,43.30
2018-09-04T04:41:07.998Z,40.80
2018-09-04T04:42:07.089Z,42.80
2018-09-04T04:43:06.994Z,44.90
2018-09-04T04:44:07.056Z,44.30
2018-09-04T04:45:07.103Z,45.90
2018-09-04T04:46:06.969Z,44.20
2018-09-04T04:47:06.941Z,45.00
2018-09-04T04:48:06.952Z,39.90
2018-09-04T04:49:06.938Z,45.00
2018-09-04T04:50:06.915Z,45.70
2018-09-04T04:51:07.055Z,45.60
2018-09-04T04:52:07.758Z,44.80
2018-09-04T04:53:07.045Z,43.20
2018-09-04T04:54:07.738Z,48.00
2018-09-04T04:55:07.588Z,48.10
2018-09-04T04:56:06.962Z,45.50
2018-09-04T04:58:18.916Z,42.50
2018-09-04T04:59:18.070Z,44.30
2018-09-04T05:00:18.059Z,45.60
2018-09-04T05:01:18.126Z,46.70
2018-09-04T05:02:18.023Z,47.00
2018-09-04T05:03:18.098Z,46.90
2018-09-04T05:04:20.004Z,50.90
2018-09-04T05:05:17.968Z,50.50
2018-09-04T05:06:18.096Z,49.10
2018-09-04T05:07:18.877Z,50.90
2018-09-04T05:08:18.890Z,50.70
2018-09-04T05:11:49.130Z,41.40
2018-09-04T05:12:48.547Z,48.80
2018-09-04T05:13:48.225Z,46.40
2018-09-04T05:14:48.117Z,46.50
2018-09-04T05:15:48.199Z,49.00
2018-09-04T05:16:48.077Z,54.20
2018-09-04T05:17:48.171Z,53.20
2018-09-04T05:18:48.065Z,51.10
2018-09-04T05:19:48.981Z,50.50
2018-09-04T05:23:29.368Z,47.70
2018-09-04T05:24:29.355Z,52.10
2018-09-04T05:25:29.296Z,48.50
2018-09-04T05:26:29.286Z,51.60
2018-09-04T05:27:29.363Z,51.90
2018-09-04T05:28:29.040Z,50.20
2018-09-04T05:29:29.086Z,51.80
2018-09-04T05:30:29.134Z,41.40
2018-09-04T05:31:29.090Z,49.10
2018-09-04T05:32:29.037Z,50.80
2018-09-04T05:33:29.043Z,38.30
2018-09-04T05:34:29.034Z,42.50
2018-09-04T05:35:28.986Z,48.50
2018-09-04T05:36:28.959Z,41.50
2018-09-04T05:37:28.948Z,49.90
2018-09-04T05:38:29.022Z,47.70
2018-09-04T05:39:28.925Z,49.30
2018-09-04T05:40:28.914Z,50.00
2018-09-04T05:41:28.906Z,52.90
2018-09-04T05:42:28.893Z,52.20
2018-09-04T05:43:28.896Z,55.00
2018-09-04T05:44:28.875Z,54.90
2018-09-04T05:45:28.859Z,53.20
2018-09-04T05:46:28.895Z,53.30
2018-09-04T05:47:28.831Z,54.30
2018-09-04T05:48:28.922Z,53.50
2018-09-04T05:49:28.839Z,53.40
2018-09-04T05:50:28.839Z,55.60
2018-09-04T05:51:28.796Z,55.10
2018-09-04T05:52:28.788Z,55.60
2018-09-04T05:53:28.773Z,53.80
2018-09-04T05:54:28.777Z,54.70
2018-09-04T05:55:28.765Z,53.00
2018-09-04T05:56:28.741Z,51.90
2018-09-04T05:57:28.742Z,53.70
2018-09-04T05:58:28.773Z,53.00
2018-09-04T05:59:28.697Z,55.20
2018-09-04T06:00:28.691Z,54.10
2018-09-04T06:01:28.710Z,56.30
2018-09-04T06:02:28.666Z,52.90
2018-09-04T06:03:28.716Z,52.90
2018-09-04T06:04:28.648Z,55.90
2018-09-04T06:05:28.639Z,55.50
2018-09-04T06:06:28.639Z,57.10
2018-09-04T06:07:28.632Z,54.70
2018-09-04T06:08:28.605Z,54.80
2018-09-04T06:09:28.612Z,54.40
2018-09-04T06:10:28.587Z,55.70
2018-09-04T06:11:28.620Z,57.70
2018-09-04T06:12:28.592Z,56.10
2018-09-04T06:13:28.551Z,55.20
2018-09-04T06:14:28.598Z,58.10
2018-09-04T06:15:28.552Z,59.20
2018-09-04T06:16:28.514Z,57.80
2018-09-04T06:17:28.513Z,58.40
2018-09-04T06:18:28.488Z,56.30
2018-09-04T06:19:28.483Z,57.20
2018-09-04T06:20:28.486Z,58.00
2018-09-04T06:21:28.480Z,58.40
2018-09-04T06:22:28.439Z,57.60
2018-09-04T06:23:28.444Z,56.60
2018-09-04T06:24:28.426Z,56.60
2018-09-04T06:25:28.451Z,59.30
2018-09-04T06:26:28.439Z,58.70
2018-09-04T06:27:28.388Z,57.80
2018-09-04T06:28:28.387Z,59.20
2018-09-04T06:29:28.471Z,57.40
2018-09-04T06:30:28.410Z,56.10
2018-09-04T06:31:28.373Z,56.10
2018-09-04T06:32:28.355Z,57.30
2018-09-04T06:33:28.380Z,55.80
2018-09-04T06:34:28.315Z,55.20
2018-09-04T06:35:28.329Z,53.90
2018-09-04T06:36:28.350Z,54.40
2018-09-04T06:37:28.317Z,57.80
2018-09-04T06:38:28.271Z,56.60
2018-09-04T06:39:28.259Z,55.00
2018-09-04T06:40:28.246Z,55.50
2018-09-04T06:41:28.323Z,55.40
2018-09-04T06:42:28.215Z,55.40
2018-09-04T06:43:28.208Z,55.90
2018-09-04T06:44:28.312Z,57.20
2018-09-04T06:45:28.210Z,54.50
2018-09-04T06:46:28.235Z,57.80
2018-09-04T06:47:28.226Z,56.00
2018-09-04T06:48:28.181Z,56.70
2018-09-04T06:49:28.196Z,56.70
2018-09-04T06:50:28.128Z,57.10
2018-09-04T06:51:28.130Z,56.70
2018-09-04T06:52:28.123Z,55.60
2018-09-04T06:53:28.113Z,56.60
2018-09-04T06:54:28.220Z,56.50
2018-09-04T06:55:28.080Z,57.80
2018-09-04T06:56:28.070Z,59.20
2018-09-04T06:57:28.078Z,58.20
2018-09-04T06:58:28.044Z,58.00
2018-09-04T06:59:28.117Z,58.50
2018-09-04T07:00:28.101Z,55.40
2018-09-04T07:01:28.053Z,55.40
2018-09-04T07:02:28.068Z,55.40
2018-09-04T07:03:28.007Z,56.50
2018-09-04T07:04:27.988Z,56.60
2018-09-04T07:05:27.980Z,57.30
2018-09-04T07:06:28.010Z,57.60
2018-09-04T07:07:27.949Z,57.00
2018-09-04T07:08:27.970Z,57.10
2018-09-04T07:09:27.927Z,57.80
2018-09-04T07:10:27.915Z,57.60
2018-09-04T07:11:27.923Z,56.20
2018-09-04T07:12:27.886Z,57.40
2018-09-04T07:13:27.898Z,58.60
2018-09-04T07:14:27.914Z,58.20
2018-09-04T07:15:27.858Z,59.00
2018-09-04T07:16:27.871Z,57.70
2018-09-04T07:17:27.822Z,55.40
2018-09-04T07:18:27.879Z,57.40
2018-09-04T07:19:27.855Z,56.80
2018-09-04T07:20:27.802Z,57.80
2018-09-04T07:21:27.791Z,57.10
2018-09-04T07:22:27.831Z,59.30
2018-09-04T07:23:27.838Z,56.50
2018-09-04T07:24:27.752Z,59.50
2018-09-04T07:25:27.762Z,58.00
2018-09-04T07:26:27.783Z,60.50
2018-09-04T07:27:27.776Z,60.50
2018-09-04T07:28:27.713Z,59.10
2018-09-04T07:29:27.709Z,60.90
2018-09-04T07:30:27.689Z,60.40
2018-09-04T07:31:27.700Z,59.90
2018-09-04T07:32:27.702Z,61.40
2018-09-04T07:33:27.723Z,60.30
2018-09-04T07:34:27.641Z,61.30
2018-09-04T07:35:27.638Z,62.40
2018-09-04T07:36:27.840Z,63.40
2018-09-04T07:37:27.703Z,63.20
2018-09-04T07:38:27.670Z,62.80
2018-09-04T07:39:27.589Z,63.30
2018-09-04T07:40:27.587Z,61.20
2018-09-04T07:41:27.579Z,61.90
2018-09-04T07:42:27.561Z,60.20
2018-09-04T07:43:27.697Z,60.60
2018-09-04T07:44:27.535Z,59.50
2018-09-04T07:45:27.684Z,60.10
2018-09-04T07:46:27.509Z,59.50
2018-09-04T07:47:27.501Z,57.40
2018-09-04T07:48:27.548Z,59.00
2018-09-04T07:49:27.534Z,58.40
2018-09-04T07:50:27.464Z,58.40
2018-09-04T07:51:27.453Z,58.40
2018-09-04T07:52:27.449Z,59.80
2018-09-04T07:53:27.626Z,58.70
2018-09-04T07:54:27.443Z,58.60
2018-09-04T07:55:27.413Z,58.70
2018-09-04T07:56:27.401Z,58.90
2018-09-04T07:57:27.389Z,58.00
2018-09-04T07:58:27.452Z,56.90
2018-09-04T07:59:27.376Z,60.60
2018-09-04T08:00:27.405Z,59.10
2018-09-04T08:01:27.433Z,59.00
2018-09-04T08:02:27.345Z,57.60
2018-09-04T08:03:27.320Z,58.30
2018-09-04T08:04:27.359Z,59.20
2018-09-04T08:05:27.296Z,57.80
2018-09-04T08:06:27.296Z,59.20
2018-09-04T08:07:27.352Z,58.40
2018-09-04T08:08:27.354Z,56.90
2018-09-04T08:09:27.275Z,56.90
2018-09-04T08:10:27.472Z,57.60
2018-09-04T08:11:27.299Z,56.80
2018-09-04T08:12:27.248Z,55.80
2018-09-04T08:13:27.389Z,54.70
2018-09-04T08:14:27.354Z,57.50
2018-09-04T08:15:27.321Z,57.20
2018-09-04T08:16:27.452Z,57.30
2018-09-04T08:17:27.297Z,57.30
2018-09-04T08:18:28.182Z,56.40
2018-09-04T08:19:27.328Z,56.90
2018-09-04T08:20:27.321Z,56.00
2018-09-04T08:21:27.245Z,55.70
2018-09-04T08:22:27.148Z,57.80
2018-09-04T08:23:27.103Z,58.60
2018-09-04T08:24:27.097Z,56.20
2018-09-04T08:25:27.115Z,56.00
2018-09-04T08:26:27.065Z,56.30
2018-09-04T08:27:27.054Z,55.60
2018-09-04T08:28:27.052Z,56.10
2018-09-04T08:29:27.109Z,56.20
2018-09-04T08:30:28.196Z,56.10
2018-09-04T08:31:27.094Z,58.80
2018-09-04T08:32:27.066Z,57.00
2018-09-04T08:33:27.019Z,57.30
2018-09-04T08:34:27.028Z,57.90
2018-09-04T08:35:27.052Z,55.80
2018-09-04T08:36:26.979Z,56.80
2018-09-04T08:37:27.074Z,56.00
2018-09-04T08:38:27.036Z,57.00
2018-09-04T08:39:27.043Z,56.20
2018-09-04T08:40:27.051Z,53.50
2018-09-04T08:41:27.085Z,55.70
2018-09-04T08:42:26.894Z,55.50
2018-09-04T08:43:26.879Z,56.10
2018-09-04T08:44:26.897Z,53.00
2018-09-04T08:45:26.852Z,56.20
2018-09-04T08:46:27.006Z,55.00
2018-09-04T08:47:26.893Z,57.10
2018-09-04T08:48:26.820Z,56.50
2018-09-04T08:49:26.848Z,56.00
2018-09-04T08:50:26.871Z,57.00
2018-09-04T08:51:26.782Z,56.40
2018-09-04T08:52:26.808Z,56.80
2018-09-04T08:53:26.811Z,56.40
2018-09-04T08:54:26.786Z,56.40
2018-09-04T08:55:26.787Z,56.50
2018-09-04T08:56:26.731Z,55.90
2018-09-04T08:57:26.721Z,55.30
2018-09-04T08:58:26.785Z,56.60
2018-09-04T08:59:26.700Z,56.30
2018-09-04T09:00:26.696Z,55.30
2018-09-04T09:01:26.676Z,55.90
2018-09-04T09:02:26.669Z,55.10
2018-09-04T09:03:26.678Z,57.20
2018-09-04T09:04:26.647Z,57.10
2018-09-04T09:05:26.679Z,56.60
2018-09-04T09:06:26.651Z,56.40
2018-09-04T09:07:26.632Z,54.90
2018-09-04T09:08:26.621Z,55.50
2018-09-04T09:09:26.596Z,56.40
2018-09-04T09:10:26.585Z,57.20
2018-09-04T09:11:26.573Z,58.60
2018-09-04T09:12:26.575Z,57.60
2018-09-04T09:13:26.564Z,56.40
2018-09-04T09:14:26.537Z,57.10
2018-09-04T09:15:26.539Z,56.00
2018-09-04T09:16:26.514Z,56.90
2018-09-04T09:17:26.527Z,58.50
2018-09-04T09:18:26.527Z,58.00
2018-09-04T09:19:26.483Z,59.30
2018-09-04T09:20:26.469Z,58.80
2018-09-04T09:21:26.457Z,57.80
2018-09-04T09:22:26.449Z,58.50
2018-09-04T09:23:26.454Z,58.20
2018-09-04T09:24:26.473Z,58.50
2018-09-04T09:25:26.418Z,58.30
2018-09-04T09:26:26.403Z,59.50
2018-09-04T09:27:26.393Z,59.20
2018-09-04T09:28:26.388Z,59.60
2018-09-04T09:29:26.389Z,57.40
2018-09-04T09:30:26.398Z,56.00
2018-09-04T09:31:26.349Z,57.80
2018-09-04T09:32:26.347Z,59.40
2018-09-04T09:33:26.328Z,59.50
2018-09-04T09:34:26.339Z,59.70
2018-09-04T09:35:26.318Z,58.90
2018-09-04T09:36:26.328Z,59.90
2018-09-04T09:37:26.289Z,61.90
2018-09-04T09:38:26.295Z,61.60
2018-09-04T09:39:26.294Z,62.90
2018-09-04T09:40:26.252Z,61.90
2018-09-04T09:41:26.248Z,61.70
2018-09-04T09:42:26.232Z,62.90
2018-09-04T09:43:26.223Z,61.90
2018-09-04T09:44:26.269Z,61.10
2018-09-04T09:45:26.200Z,58.10
2018-09-04T09:46:26.196Z,60.40
2018-09-04T09:47:26.176Z,61.40
2018-09-04T09:48:26.162Z,60.80
2018-09-04T09:49:26.158Z,60.60
2018-09-04T09:50:26.183Z,60.10
2018-09-04T09:51:26.176Z,60.00
2018-09-04T09:52:26.146Z,60.50
2018-09-04T09:53:26.352Z,62.70
2018-09-04T09:54:26.103Z,63.10
2018-09-04T09:55:26.140Z,65.00
2018-09-04T09:56:26.146Z,62.80
2018-09-04T09:57:26.094Z,62.90
2018-09-04T09:58:26.066Z,62.70
2018-09-04T09:59:26.114Z,62.30
2018-09-04T10:00:26.038Z,63.50
2018-09-04T10:01:26.058Z,60.60
2018-09-04T10:02:26.054Z,61.00
2018-09-04T10:03:26.006Z,62.00
2018-09-04T10:04:25.998Z,59.40
2018-09-04T10:05:25.990Z,57.00
2018-09-04T10:06:25.976Z,57.50
2018-09-04T10:07:25.983Z,58.90
2018-09-04T10:08:25.990Z,57.60
2018-09-04T10:09:25.939Z,56.70
2018-09-04T10:10:25.935Z,56.80
2018-09-04T10:11:25.917Z,57.20
2018-09-04T10:12:25.928Z,56.90
2018-09-04T10:13:25.898Z,56.20
2018-09-04T10:14:25.904Z,57.50
2018-09-04T10:15:25.877Z,55.40
2018-09-04T10:16:25.862Z,53.20
2018-09-04T10:17:25.888Z,54.90
2018-09-04T10:18:25.844Z,55.70
2018-09-04T10:19:25.832Z,55.80
2018-09-04T10:20:25.850Z,56.70
2018-09-04T10:21:25.928Z,56.30
2018-09-04T10:22:25.799Z,57.10
2018-09-04T10:23:25.814Z,56.10
2018-09-04T10:24:25.780Z,55.60
2018-09-04T10:25:25.771Z,56.10
2018-09-04T10:26:25.859Z,53.80
2018-09-04T10:27:25.746Z,53.40
2018-09-04T10:28:25.753Z,53.20
2018-09-04T10:29:25.727Z,52.70
2018-09-04T10:30:25.718Z,52.80
2018-09-04T10:31:25.706Z,53.80
2018-09-04T10:32:25.737Z,55.50
2018-09-04T10:33:25.699Z,52.10
2018-09-04T10:34:25.674Z,48.90
2018-09-04T10:35:25.661Z,53.50
2018-09-04T10:36:25.719Z,50.90
2018-09-04T10:37:25.669Z,53.50
2018-09-04T10:38:25.677Z,51.00
2018-09-04T10:39:25.623Z,53.20
2018-09-04T10:40:25.616Z,52.90
2018-09-04T10:41:25.603Z,52.20
2018-09-04T10:42:25.588Z,49.80
2018-09-04T10:43:25.608Z,49.90
2018-09-04T10:44:25.697Z,48.60
2018-09-04T10:45:25.558Z,51.30
2018-09-04T10:46:25.569Z,50.90
2018-09-04T10:47:25.539Z,50.20
2018-09-04T10:48:25.522Z,50.10
2018-09-04T10:49:25.550Z,48.80
2018-09-04T10:50:25.621Z,47.20
2018-09-04T10:51:25.504Z,48.60
2018-09-04T10:52:25.524Z,48.30
2018-09-04T10:53:25.504Z,48.30
2018-09-04T10:54:25.478Z,48.60
2018-09-04T10:55:25.449Z,46.70
2018-09-04T10:56:25.454Z,46.30
2018-09-04T10:57:25.484Z,47.20
2018-09-04T10:58:25.431Z,46.40
2018-09-04T10:59:25.415Z,46.00
2018-09-04T11:00:25.466Z,45.10
2018-09-04T11:01:25.498Z,45.40
2018-09-04T11:02:25.381Z,45.20
2018-09-04T11:03:25.363Z,43.30
2018-09-04T11:04:25.404Z,43.30
2018-09-04T11:05:25.356Z,42.40
2018-09-04T11:06:25.338Z,40.10
2018-09-04T11:07:25.324Z,39.30
2018-09-04T11:08:25.354Z,40.80
2018-09-04T11:10:42.541Z,38.20
2018-09-04T11:11:42.249Z,40.80
2018-09-04T11:13:03.636Z,40.00
2018-09-04T11:13:42.194Z,39.60
2018-09-04T11:14:42.842Z,35.40
2018-09-04T11:15:41.940Z,40.50
2018-09-04T11:16:42.021Z,39.10
2018-09-04T11:17:41.933Z,38.40
2018-09-04T11:18:41.961Z,39.60
2018-09-04T11:19:41.974Z,37.90
2018-09-04T11:20:42.061Z,39.20
2018-09-04T11:21:41.990Z,37.60
2018-09-04T11:22:41.907Z,36.50
2018-09-04T11:23:41.872Z,36.30
2018-09-04T11:24:41.966Z,36.00
2018-09-04T11:25:41.823Z,37.20
2018-09-04T11:26:41.813Z,38.60
2018-09-04T11:27:41.813Z,38.40
2018-09-04T11:28:41.810Z,39.20
2018-09-04T11:29:41.800Z,37.90
2018-09-04T11:30:41.907Z,38.40
2018-09-04T11:31:41.867Z,37.20
2018-09-04T11:32:41.772Z,37.40
2018-09-04T11:33:41.745Z,36.40
2018-09-04T11:34:41.929Z,37.50
2018-09-04T11:35:41.778Z,37.20
2018-09-04T11:36:41.755Z,35.30
2018-09-04T11:37:41.779Z,35.60
2018-09-04T11:38:41.713Z,36.70
2018-09-04T11:39:41.683Z,35.60
2018-09-04T11:40:41.723Z,35.60
2018-09-04T11:41:41.670Z,36.10
2018-09-04T11:42:41.655Z,33.60
2018-09-04T11:43:41.655Z,33.10
2018-09-04T11:44:41.632Z,32.60
2018-09-04T11:45:42.182Z,33.10
2018-09-04T11:46:41.610Z,31.00
2018-09-04T11:47:41.662Z,31.70
2018-09-04T11:48:44.731Z,31.60
2018-09-04T11:49:41.663Z,33.20
2018-09-04T11:50:41.579Z,29.90
2018-09-04T11:51:41.568Z,31.60
2018-09-04T11:53:38.359Z,24.80
2018-09-04T11:54:37.958Z,27.10
2018-09-04T11:55:37.811Z,27.00
2018-09-04T11:56:37.740Z,27.00
2018-09-04T11:57:37.741Z,25.80
2018-09-04T11:58:37.850Z,28.50
2018-09-04T11:59:37.783Z,27.60
2018-09-04T12:00:37.782Z,27.20
2018-09-04T12:01:37.653Z,26.50
2018-09-04T12:02:37.639Z,26.00
2018-09-04T12:03:37.646Z,27.00
2018-09-04T12:04:37.637Z,24.60
2018-09-04T12:05:37.617Z,26.20
2018-09-04T12:06:37.690Z,24.80
2018-09-04T12:07:37.575Z,25.90
2018-09-04T12:08:37.565Z,25.90
2018-09-04T12:09:37.553Z,25.10
2018-09-04T12:10:37.567Z,26.30
2018-09-04T12:11:37.536Z,25.70
2018-09-04T12:12:38.538Z,28.20
2018-09-04T12:14:49.949Z,24.90
2018-09-04T12:15:49.417Z,26.60
2018-09-04T12:16:49.458Z,24.90
2018-09-04T12:17:49.468Z,24.30
2018-09-04T12:18:49.354Z,26.70
2018-09-04T12:19:50.009Z,26.30
2018-09-04T12:20:49.438Z,25.90
2018-09-04T12:21:49.319Z,27.10
2018-09-04T12:22:49.333Z,26.60
2018-09-04T12:23:50.444Z,24.40
2018-09-04T12:24:49.565Z,24.90
2018-09-04T12:25:49.453Z,23.40
2018-09-04T12:26:49.530Z,24.50
2018-09-04T12:27:49.272Z,22.20
2018-09-04T12:28:49.297Z,22.60
2018-09-04T12:29:49.518Z,22.00
2018-09-04T12:30:49.307Z,22.10
2018-09-04T12:31:49.324Z,22.70
2018-09-04T12:32:49.302Z,21.30
2018-09-04T12:33:49.262Z,19.90
2018-09-04T12:34:49.236Z,21.20
2018-09-04T12:35:49.200Z,20.90
2018-09-04T12:36:49.362Z,19.20
2018-09-04T12:37:49.178Z,20.60
2018-09-04T12:38:49.697Z,18.80
2018-09-04T12:39:50.042Z,20.80
2018-09-04T12:40:49.162Z,21.00
2018-09-04T12:41:49.218Z,19.80
2018-09-04T12:42:49.128Z,22.60
2018-09-04T12:43:49.132Z,23.20
2018-09-04T12:44:49.120Z,21.80
2018-09-04T12:45:49.105Z,21.30
2018-09-04T12:46:49.125Z,21.50
2018-09-04T12:47:49.141Z,20.00
2018-09-04T12:48:49.076Z,19.80
2018-09-04T12:49:49.426Z,19.90
2018-09-04T12:53:40.142Z,20.80
2018-09-04T12:54:39.729Z,22.30
2018-09-04T12:55:39.703Z,22.90
2018-09-04T12:56:39.551Z,21.70
2018-09-04T12:57:49.230Z,22.20
2018-09-04T12:58:39.674Z,21.10
2018-09-04T12:59:39.657Z,22.80
2018-09-04T13:00:39.901Z,22.20
2018-09-04T13:01:39.542Z,20.50
2018-09-04T13:02:39.469Z,19.30
2018-09-04T13:03:39.573Z,21.10
2018-09-04T13:04:39.518Z,20.80
2018-09-04T13:05:39.474Z,20.90
2018-09-04T13:06:39.434Z,21.30
2018-09-04T13:07:39.567Z,20.60